Terminal Aerodrome Forecast
Issued by NWS

Home | Current Version | Previous Version | Text Only | Print | Product List | Glossary On
Versions: 1 2 3 4 5 6 7 8 9 10 11 12 13 14 15 16 17 18 19 20 21 22 23
669
FTUS43 KLOT 180324 AAA
TAFDPA
TAF AMD
KDPA 180324Z 1803/1824 27011KT P6SM OVC015
      TEMPO 1804/1806 SCT015
     FM180600 26004KT 5SM BR BCFG SKC
     FM181000 00000KT 2SM BR MIFG SKC
      TEMPO 1810/1814 1/2SM FZFG VV003
     FM181500 17010KT P6SM SCT250
     FM181900 18015G25KT P6SM SCT250=

USA.gov is the U.S. government's official web portal to all federal, state and local government web resources and services.